Time;durP1;ratioP1;P1;durP2;ratioP2;P2;SDS_P1;SDS_P2;PMS_P1;PMS_P2;Temp;Humidity;BMP_temperature;BMP_pressure;BME280_temperature;BME280_humidity;BME280_pressure;Samples;Min_cycle;Max_cycle;Signal;HPM_P1;HPM_P2
2022/10/24 00:01:07;;;;;;;8.30;2.90;;;14.00;99.90;;;;;;5052755;28;20037;-63
2022/10/24 00:03:32;;;;;;;7.85;2.78;;;14.00;99.90;;;;;;5050617;28;20033;-64
2022/10/24 00:05:58;;;;;;;8.02;2.85;;;14.00;99.90;;;;;;5052346;28;20043;-64
2022/10/24 00:08:23;;;;;;;8.02;2.75;;;14.00;99.90;;;;;;5085241;28;20045;-63
2022/10/24 00:10:49;;;;;;;5.95;2.10;;;14.10;99.90;;;;;;5083906;28;20040;-63
2022/10/24 00:13:15;;;;;;;8.32;2.70;;;14.00;99.90;;;;;;5052942;28;20051;-63
2022/10/24 00:15:47;;;;;;;6.85;2.60;;;14.00;99.90;;;;;;5052436;28;20095;-63
2022/10/24 00:18:13;;;;;;;9.23;2.63;;;14.00;99.90;;;;;;5051853;28;20481;-63
2022/10/24 00:20:40;;;;;;;5.68;2.30;;;14.00;99.90;;;;;;5051996;28;20071;-63
2022/10/24 00:23:05;;;;;;;6.05;2.22;;;14.00;99.90;;;;;;5052109;28;20036;-63
2022/10/24 00:25:31;;;;;;;9.88;2.55;;;14.00;99.90;;;;;;5051857;28;20051;-63
2022/10/24 00:27:57;;;;;;;4.90;2.25;;;14.00;99.90;;;;;;5084034;28;20049;-63
2022/10/24 00:30:22;;;;;;;5.80;2.03;;;14.00;99.90;;;;;;5051841;28;20094;-63
2022/10/24 00:32:50;;;;;;;5.32;2.15;;;14.00;99.90;;;;;;5052028;28;20060;-63
2022/10/24 00:35:15;;;;;;;6.32;2.45;;;14.00;99.90;;;;;;5084579;28;20053;-63
2022/10/24 00:37:41;;;;;;;7.35;2.42;;;14.00;99.90;;;;;;5051277;28;20073;-63
2022/10/24 00:40:08;;;;;;;7.30;2.47;;;14.00;99.90;;;;;;5051934;28;20032;-63
2022/10/24 00:42:33;;;;;;;8.35;2.17;;;14.00;99.90;;;;;;5084633;28;20055;-63
2022/10/24 00:45:00;;;;;;;8.38;2.20;;;14.10;99.90;;;;;;5051196;28;20049;-63
2022/10/24 00:47:27;;;;;;;7.85;2.72;;;14.10;99.90;;;;;;5084592;28;20501;-63
2022/10/24 00:50:04;;;;;;;10.35;2.40;;;14.10;99.90;;;;;;5033736;28;20037;-63
2022/10/24 00:52:35;;;;;;;6.72;2.50;;;14.10;99.90;;;;;;5033715;28;20041;-63
2022/10/24 00:55:02;;;;;;;9.55;2.08;;;14.20;99.90;;;;;;5052104;28;20051;-63
2022/10/24 00:57:41;;;;;;;5.32;1.80;;;14.20;99.90;;;;;;5051275;28;20095;-63
2022/10/24 01:00:11;;;;;;;6.13;2.10;;;14.20;99.90;;;;;;5083626;28;20393;-63
2022/10/24 01:02:37;;;;;;;7.40;2.10;;;14.20;99.90;;;;;;5083920;28;20498;-63
2022/10/24 01:05:05;;;;;;;7.05;1.83;;;14.30;99.90;;;;;;5051643;28;20067;-63
2022/10/24 01:07:52;;;;;;;7.90;2.15;;;14.20;99.90;;;;;;5083504;28;20072;-63
2022/10/24 01:10:42;;;;;;;7.82;2.45;;;14.20;99.90;;;;;;5084145;28;20107;-63
2022/10/24 01:13:24;;;;;;;6.00;2.25;;;14.20;99.90;;;;;;5083265;28;20062;-63
2022/10/24 01:15:53;;;;;;;9.55;2.25;;;14.20;99.90;;;;;;5051654;28;20398;-63
2022/10/24 01:18:36;;;;;;;4.82;2.08;;;14.20;99.90;;;;;;5084141;28;20049;-63
2022/10/24 01:21:07;;;;;;;8.98;2.60;;;14.20;99.90;;;;;;5083410;28;20053;-63
2022/10/24 01:24:10;;;;;;;10.13;2.40;;;14.20;99.90;;;;;;5051472;28;20033;-63
2022/10/24 01:27:04;;;;;;;7.32;2.47;;;14.20;99.90;;;;;;5050728;28;20504;-63
2022/10/24 01:30:02;;;;;;;5.82;1.85;;;14.20;99.90;;;;;;5051855;28;20061;-63
2022/10/24 01:32:51;;;;;;;7.68;2.17;;;14.30;99.90;;;;;;5051138;28;20056;-63
2022/10/24 01:35:23;;;;;;;10.63;3.03;;;14.30;99.90;;;;;;5053698;28;20036;-63
2022/10/24 01:37:57;;;;;;;9.32;2.50;;;14.30;99.90;;;;;;5055031;28;20505;-63
2022/10/24 01:40:35;;;;;;;6.72;2.53;;;14.40;99.90;;;;;;5054440;28;20116;-63
2022/10/24 01:43:09;;;;;;;6.13;2.08;;;14.50;99.90;;;;;;5055494;28;20048;-63
2022/10/24 01:45:40;;;;;;;6.25;2.30;;;14.50;99.90;;;;;;5053874;28;20071;-63
2022/10/24 01:48:11;;;;;;;8.20;2.55;;;14.50;99.90;;;;;;5054508;28;20040;-63
2022/10/24 01:50:39;;;;;;;7.82;2.25;;;14.60;99.90;;;;;;5055145;28;20059;-64
2022/10/24 01:53:07;;;;;;;6.95;2.75;;;14.60;99.90;;;;;;5087523;28;20119;-63
2022/10/24 01:55:35;;;;;;;12.20;2.97;;;14.60;99.90;;;;;;5086605;28;20417;-64
2022/10/24 01:58:00;;;;;;;8.05;2.50;;;14.60;99.90;;;;;;5055043;28;20073;-63
2022/10/24 02:00:26;;;;;;;7.13;2.30;;;14.70;99.90;;;;;;5087638;28;20524;-63
2022/10/24 02:03:03;;;;;;;5.18;2.53;;;14.70;99.90;;;;;;5053899;28;20938;-63
2022/10/24 02:05:44;;;;;;;9.02;2.70;;;14.70;99.90;;;;;;5087390;28;20052;-63
2022/10/24 02:08:16;;;;;;;8.48;2.50;;;14.70;99.90;;;;;;5054198;28;20068;-63
2022/10/24 02:10:49;;;;;;;6.13;2.53;;;14.70;99.90;;;;;;5054175;28;20033;-63
2022/10/24 02:13:24;;;;;;;8.85;2.58;;;14.70;99.90;;;;;;5087647;28;20041;-63
2022/10/24 02:15:54;;;;;;;7.72;2.40;;;14.70;99.90;;;;;;5053368;28;20037;-63
2022/10/24 02:18:20;;;;;;;16.30;3.47;;;14.70;99.90;;;;;;5087225;28;20041;-63
2022/10/24 02:21:00;;;;;;;10.70;3.03;;;14.70;99.90;;;;;;5054473;28;20394;-63
2022/10/24 02:23:36;;;;;;;6.70;2.50;;;14.70;99.90;;;;;;5086441;28;20049;-63
2022/10/24 02:26:13;;;;;;;7.70;3.05;;;14.80;99.90;;;;;;5086564;28;20079;-63
2022/10/24 02:28:43;;;;;;;8.98;2.55;;;14.80;99.90;;;;;;5054319;28;20063;-63
2022/10/24 02:31:17;;;;;;;9.02;2.40;;;14.80;99.90;;;;;;5053690;28;20401;-63
2022/10/24 02:33:44;;;;;;;8.30;2.78;;;14.90;99.90;;;;;;5054374;28;20112;-63
2022/10/24 02:36:14;;;;;;;5.10;2.33;;;14.90;99.90;;;;;;5053328;28;20400;-63
2022/10/24 02:38:43;;;;;;;6.38;2.33;;;14.90;99.90;;;;;;5085766;28;20120;-63
2022/10/24 02:41:12;;;;;;;11.45;3.80;;;14.90;99.90;;;;;;5086581;28;20053;-63
2022/10/24 02:43:41;;;;;;;9.27;2.47;;;15.00;99.90;;;;;;5086423;28;20049;-63
2022/10/24 02:46:09;;;;;;;7.90;2.63;;;15.00;99.90;;;;;;5084576;28;20049;-63
2022/10/24 02:48:41;;;;;;;8.23;3.13;;;15.00;99.90;;;;;;5054014;28;20543;-63
2022/10/24 02:51:08;;;;;;;6.97;2.70;;;15.00;99.90;;;;;;5085617;28;20045;-63
2022/10/24 02:53:35;;;;;;;7.38;2.50;;;15.00;99.90;;;;;;5086231;28;20558;-63
2022/10/24 02:56:01;;;;;;;6.20;2.35;;;15.00;99.90;;;;;;5052901;28;20056;-63
2022/10/24 02:58:27;;;;;;;6.97;2.53;;;14.90;99.90;;;;;;5053401;28;20052;-63
2022/10/24 03:00:53;;;;;;;8.93;2.60;;;14.90;99.90;;;;;;5085956;28;20044;-63
2022/10/24 03:03:18;;;;;;;8.65;2.80;;;14.90;99.90;;;;;;5086241;28;20045;-63
2022/10/24 03:05:44;;;;;;;8.13;2.50;;;14.90;99.90;;;;;;5084995;28;20070;-63
2022/10/24 03:08:11;;;;;;;8.60;3.33;;;14.90;99.90;;;;;;5086391;28;20045;-63
2022/10/24 03:10:37;;;;;;;7.80;3.65;;;15.00;99.90;;;;;;5053748;28;20121;-63
2022/10/24 03:13:03;;;;;;;7.88;3.03;;;15.00;99.90;;;;;;5085164;28;20120;-63
2022/10/24 03:15:29;;;;;;;7.00;2.95;;;15.00;99.90;;;;;;5086094;28;20048;-63
2022/10/24 03:17:54;;;;;;;9.00;3.30;;;14.90;99.90;;;;;;5053156;28;20040;-63
2022/10/24 03:20:20;;;;;;;7.75;2.65;;;14.90;99.90;;;;;;5085045;28;20037;-63
2022/10/24 03:22:46;;;;;;;7.95;2.75;;;14.90;99.90;;;;;;5053169;28;20441;-64
2022/10/24 03:25:11;;;;;;;6.38;2.80;;;14.90;99.90;;;;;;5069179;28;20123;-63
2022/10/24 03:27:38;;;;;;;10.35;2.50;;;14.90;99.90;;;;;;5084612;28;20494;-63
2022/10/24 03:30:04;;;;;;;12.43;2.78;;;14.90;99.90;;;;;;5053369;28;20397;-63
2022/10/24 03:32:32;;;;;;;6.40;2.88;;;14.90;99.90;;;;;;5053347;28;20482;-63
2022/10/24 03:34:58;;;;;;;8.43;2.50;;;14.90;99.90;;;;;;5052227;28;20076;-63
2022/10/24 03:37:24;;;;;;;6.80;2.13;;;14.90;99.90;;;;;;5052424;28;20076;-63
2022/10/24 03:39:49;;;;;;;5.75;2.47;;;14.90;99.90;;;;;;5085097;28;20040;-63
2022/10/24 03:42:15;;;;;;;6.72;2.80;;;14.90;99.90;;;;;;5084693;28;20049;-63
2022/10/24 03:44:41;;;;;;;13.65;3.05;;;14.90;99.90;;;;;;5085273;28;20128;-63
2022/10/24 03:47:06;;;;;;;7.15;2.83;;;14.90;99.90;;;;;;5067800;28;20041;-63
2022/10/24 03:49:32;;;;;;;7.65;2.28;;;14.90;99.90;;;;;;5085166;28;20045;-63
2022/10/24 03:51:58;;;;;;;7.70;2.75;;;14.90;99.90;;;;;;5053102;28;20037;-63
2022/10/24 03:54:23;;;;;;;6.93;2.83;;;14.90;99.90;;;;;;5052559;28;20033;-63
2022/10/24 03:56:49;;;;;;;8.90;2.50;;;14.90;99.90;;;;;;5052146;28;20477;-63
2022/10/24 03:59:15;;;;;;;6.68;2.40;;;14.90;99.90;;;;;;5085291;28;20084;-63
2022/10/24 04:01:41;;;;;;;6.90;2.47;;;14.90;99.90;;;;;;5084618;28;20408;-63
2022/10/24 04:04:06;;;;;;;11.98;2.88;;;14.90;99.90;;;;;;5052414;28;20041;-63
2022/10/24 04:06:32;;;;;;;11.13;2.35;;;14.90;99.90;;;;;;5052826;28;20044;-63
2022/10/24 04:08:58;;;;;;;7.57;2.55;;;14.80;99.90;;;;;;5084018;28;20041;-63
2022/10/24 04:11:24;;;;;;;8.10;2.63;;;14.80;99.90;;;;;;5052760;28;20112;-63
2022/10/24 04:13:51;;;;;;;6.63;2.50;;;14.80;99.90;;;;;;5052178;28;20446;-63
2022/10/24 04:16:18;;;;;;;9.25;2.50;;;14.80;99.90;;;;;;5084006;28;20494;-63
2022/10/24 04:18:43;;;;;;;7.20;2.25;;;14.70;99.90;;;;;;5051972;28;20037;-63
2022/10/24 04:21:09;;;;;;;9.80;3.17;;;14.70;99.90;;;;;;5084786;28;20041;-63
2022/10/24 04:23:39;;;;;;;9.50;2.95;;;14.70;99.90;;;;;;5066831;28;20049;-63
2022/10/24 04:26:06;;;;;;;5.75;2.33;;;14.60;99.90;;;;;;5084396;28;20128;-63
2022/10/24 04:28:32;;;;;;;7.78;2.40;;;14.60;99.90;;;;;;5052250;28;20064;-63
2022/10/24 04:30:58;;;;;;;7.03;2.63;;;14.60;99.90;;;;;;5051333;28;20382;-63
2022/10/24 04:33:24;;;;;;;7.40;2.85;;;14.50;99.90;;;;;;5052301;28;20051;-63
2022/10/24 04:35:50;;;;;;;8.95;2.95;;;14.40;99.90;;;;;;5052089;28;20115;-63
2022/10/24 04:38:16;;;;;;;8.48;2.67;;;14.40;99.90;;;;;;5051698;28;20059;-63
2022/10/24 04:40:49;;;;;;;6.00;2.80;;;14.40;99.90;;;;;;5051973;28;20506;-63
2022/10/24 04:43:16;;;;;;;11.55;3.55;;;14.30;99.90;;;;;;5084781;28;20083;-63
2022/10/24 04:45:41;;;;;;;13.32;3.20;;;14.30;99.90;;;;;;5033213;28;20044;-63
2022/10/24 04:48:07;;;;;;;10.65;3.10;;;14.30;99.90;;;;;;5084493;28;20501;-63
2022/10/24 04:50:33;;;;;;;10.75;2.70;;;14.30;99.90;;;;;;5083612;28;20178;-63
2022/10/24 04:53:00;;;;;;;8.77;2.97;;;14.30;99.90;;;;;;5051915;28;20072;-63
2022/10/24 04:55:26;;;;;;;7.25;2.42;;;14.30;99.90;;;;;;5052062;28;20045;-63
2022/10/24 04:57:52;;;;;;;7.68;2.72;;;14.20;99.90;;;;;;5051030;28;20036;-63
2022/10/24 05:00:18;;;;;;;9.07;3.20;;;14.20;99.90;;;;;;5084334;28;20505;-63
2022/10/24 05:02:43;;;;;;;8.13;3.25;;;14.20;99.90;;;;;;5084498;28;20131;-63
2022/10/24 05:05:09;;;;;;;11.95;2.60;;;14.20;99.90;;;;;;5051199;28;20041;-63
2022/10/24 05:07:35;;;;;;;6.30;2.45;;;14.10;99.90;;;;;;5051927;28;20112;-63
2022/10/24 05:10:02;;;;;;;6.05;2.35;;;14.10;99.90;;;;;;5055353;28;20080;-63
2022/10/24 05:12:28;;;;;;;8.70;2.58;;;14.20;99.90;;;;;;5087767;28;20041;-63
2022/10/24 05:14:54;;;;;;;7.00;2.28;;;14.20;99.90;;;;;;5071433;28;20056;-63
2022/10/24 05:17:19;;;;;;;16.75;3.33;;;14.20;99.90;;;;;;5088543;28;20082;-63
2022/10/24 05:19:45;;;;;;;8.05;2.10;;;14.20;99.90;;;;;;5087197;28;20478;-63
2022/10/24 05:22:10;;;;;;;11.30;2.90;;;14.20;99.90;;;;;;5056187;28;20036;-63
2022/10/24 05:24:36;;;;;;;6.78;2.03;;;14.30;99.90;;;;;;5054443;28;20466;-63
2022/10/24 05:27:02;;;;;;;12.07;2.50;;;14.30;99.90;;;;;;5037149;28;20489;-63
2022/10/24 05:29:28;;;;;;;5.70;2.13;;;14.30;99.90;;;;;;5087941;28;20490;-63
2022/10/24 05:31:53;;;;;;;7.13;2.15;;;14.40;99.90;;;;;;5087556;28;20120;-63
2022/10/24 05:34:19;;;;;;;6.53;2.00;;;14.40;99.90;;;;;;5055027;28;20129;-63
2022/10/24 05:36:45;;;;;;;8.63;2.42;;;14.40;99.90;;;;;;5055172;28;20032;-63
2022/10/24 05:39:10;;;;;;;6.30;2.20;;;14.40;99.90;;;;;;5037746;28;20051;-63
2022/10/24 05:41:36;;;;;;;7.15;2.78;;;14.40;99.90;;;;;;5054485;28;20409;-63
2022/10/24 05:44:02;;;;;;;5.70;1.90;;;14.50;99.90;;;;;;5055120;28;20531;-63
2022/10/24 05:46:27;;;;;;;8.07;2.47;;;14.50;99.90;;;;;;5055725;28;20052;-63
2022/10/24 05:48:53;;;;;;;7.60;2.10;;;14.50;99.90;;;;;;5054359;28;20044;-63
2022/10/24 05:51:19;;;;;;;11.80;2.38;;;14.50;99.90;;;;;;5055608;28;20041;-64
2022/10/24 05:53:47;;;;;;;7.47;2.35;;;14.50;99.90;;;;;;5052757;28;20064;-63
2022/10/24 05:56:13;;;;;;;7.97;2.55;;;14.50;99.90;;;;;;5055353;28;20037;-64
2022/10/24 05:58:39;;;;;;;7.28;2.20;;;14.50;99.90;;;;;;5052908;28;20040;-63
2022/10/24 06:01:04;;;;;;;7.35;2.00;;;14.50;99.90;;;;;;5050062;28;20480;-64
2022/10/24 06:03:30;;;;;;;6.57;1.80;;;14.50;99.90;;;;;;5032644;28;20112;-63
2022/10/24 06:05:56;;;;;;;8.77;1.90;;;14.50;99.90;;;;;;5040291;28;20044;-63
2022/10/24 06:08:21;;;;;;;9.05;2.25;;;14.60;99.90;;;;;;5050556;28;20049;-63
2022/10/24 06:10:49;;;;;;;7.70;2.42;;;14.50;99.90;;;;;;5051833;28;20040;-63
2022/10/24 06:13:15;;;;;;;9.88;2.20;;;14.50;99.90;;;;;;5050413;28;20522;-64
2022/10/24 06:15:42;;;;;;;7.78;1.50;;;14.50;99.90;;;;;;5049655;28;20048;-63
2022/10/24 06:18:08;;;;;;;7.20;2.13;;;14.50;99.90;;;;;;5050872;28;20126;-63
2022/10/24 06:20:35;;;;;;;9.82;1.83;;;14.50;99.90;;;;;;5051781;28;20094;-63
2022/10/24 06:23:00;;;;;;;6.97;2.15;;;14.50;99.90;;;;;;5049612;28;20159;-63
2022/10/24 06:25:26;;;;;;;9.05;2.13;;;14.50;99.90;;;;;;5050463;28;20123;-63
2022/10/24 06:27:52;;;;;;;6.13;1.55;;;14.50;99.90;;;;;;5083361;28;20084;-63
2022/10/24 06:30:18;;;;;;;9.00;2.03;;;14.50;99.90;;;;;;5051000;28;20053;-63
2022/10/24 06:32:43;;;;;;;6.72;1.70;;;14.50;99.90;;;;;;5051887;28;20094;-63
2022/10/24 06:35:12;;;;;;;9.55;2.42;;;14.50;99.90;;;;;;5050431;28;20047;-63
2022/10/24 06:37:38;;;;;;;7.75;1.63;;;14.50;99.90;;;;;;5049251;28;20052;-63
2022/10/24 06:40:04;;;;;;;6.43;1.90;;;14.60;99.90;;;;;;5050632;28;20436;-63
2022/10/24 06:42:30;;;;;;;5.95;1.92;;;14.60;99.90;;;;;;5050463;28;20132;-63
2022/10/24 06:44:55;;;;;;;7.25;1.83;;;14.60;99.90;;;;;;5049118;28;20490;-63
2022/10/24 06:47:21;;;;;;;6.70;1.85;;;14.60;99.90;;;;;;5051647;28;20456;-63
2022/10/24 06:49:46;;;;;;;7.28;2.05;;;14.60;99.90;;;;;;5050727;28;20132;-64
2022/10/24 06:52:12;;;;;;;6.15;1.35;;;14.70;99.90;;;;;;5050817;28;20123;-63
2022/10/24 06:54:39;;;;;;;6.40;1.55;;;14.70;99.90;;;;;;5046155;28;20052;-64
2022/10/24 06:57:06;;;;;;;8.88;3.00;;;14.70;99.90;;;;;;5049608;28;20044;-63
2022/10/24 06:59:32;;;;;;;10.65;2.17;;;14.70;99.90;;;;;;5050118;28;20048;-63
2022/10/24 07:01:57;;;;;;;5.18;1.40;;;14.70;99.90;;;;;;5049436;28;20049;-63
2022/10/24 07:04:24;;;;;;;4.15;1.23;;;14.80;99.90;;;;;;5051038;28;20063;-62
2022/10/24 07:06:50;;;;;;;5.97;1.88;;;14.80;99.90;;;;;;5040450;28;20041;-63
2022/10/24 07:09:16;;;;;;;8.32;1.90;;;14.80;99.90;;;;;;5030620;28;20053;-63
2022/10/24 07:11:42;;;;;;;9.02;2.10;;;14.80;99.90;;;;;;5030705;28;20080;-63
2022/10/24 07:14:08;;;;;;;6.95;2.20;;;14.80;99.90;;;;;;5031420;28;20069;-63
2022/10/24 07:16:35;;;;;;;6.88;1.77;;;14.80;99.90;;;;;;5050054;28;20102;-63
2022/10/24 07:19:01;;;;;;;6.15;1.80;;;14.80;99.90;;;;;;5050727;28;20429;-63
2022/10/24 07:21:29;;;;;;;8.73;2.17;;;14.90;99.90;;;;;;5051228;28;20043;-63
2022/10/24 07:23:55;;;;;;;6.70;2.17;;;14.90;99.90;;;;;;5049571;28;20040;-63
2022/10/24 07:26:23;;;;;;;12.15;2.20;;;14.90;99.90;;;;;;5049327;28;20052;-63
2022/10/24 07:28:53;;;;;;;8.85;2.20;;;15.00;99.90;;;;;;5032470;28;20163;-63
2022/10/24 07:31:22;;;;;;;8.73;2.38;;;15.00;99.90;;;;;;5050572;28;20071;-63
2022/10/24 07:33:48;;;;;;;6.70;1.40;;;15.00;99.90;;;;;;5049332;28;20359;-62
2022/10/24 07:36:18;;;;;;;5.45;1.48;;;15.00;99.90;;;;;;5050539;28;20044;-63
2022/10/24 07:38:45;;;;;;;8.32;2.60;;;15.10;99.90;;;;;;5047815;28;20064;-63
2022/10/24 07:41:10;;;;;;;9.93;1.98;;;15.10;99.90;;;;;;5050128;28;20040;-63
2022/10/24 07:43:36;;;;;;;7.28;2.00;;;15.10;99.90;;;;;;5048925;28;20067;-63
2022/10/24 07:46:09;;;;;;;9.02;2.30;;;15.10;99.90;;;;;;5051140;28;20041;-63
2022/10/24 07:48:37;;;;;;;5.50;1.80;;;15.10;99.90;;;;;;5045919;28;20037;-63
2022/10/24 07:51:07;;;;;;;6.03;2.10;;;15.20;99.90;;;;;;5050209;28;20041;-63
2022/10/24 07:53:33;;;;;;;11.32;2.05;;;15.20;99.90;;;;;;5032192;28;20041;-63
2022/10/24 07:56:00;;;;;;;7.18;1.90;;;15.30;99.90;;;;;;5048912;28;20560;-63
2022/10/24 07:58:27;;;;;;;6.25;1.70;;;15.20;99.90;;;;;;5031138;28;20127;-63
2022/10/24 08:00:52;;;;;;;8.43;1.70;;;15.30;99.90;;;;;;5047331;28;20045;-63
2022/10/24 08:03:18;;;;;;;7.38;1.75;;;15.30;99.90;;;;;;5049741;28;20410;-63
2022/10/24 08:05:47;;;;;;;6.70;1.60;;;15.40;99.90;;;;;;5046433;28;20489;-63
2022/10/24 08:08:13;;;;;;;7.78;1.95;;;15.40;99.90;;;;;;5048308;28;20532;-63
2022/10/24 08:10:38;;;;;;;6.22;2.10;;;15.40;99.90;;;;;;5082324;28;20080;-63
2022/10/24 08:13:04;;;;;;;5.43;2.03;;;15.50;99.90;;;;;;5050795;28;20471;-63
2022/10/24 08:15:30;;;;;;;7.43;2.25;;;15.50;99.90;;;;;;5067469;28;20424;-63
2022/10/24 08:17:56;;;;;;;12.52;1.95;;;15.50;99.90;;;;;;5050801;28;20041;-62
2022/10/24 08:20:25;;;;;;;5.05;1.48;;;15.60;99.90;;;;;;5053033;28;20044;-63
2022/10/24 08:22:52;;;;;;;6.07;1.50;;;15.60;99.90;;;;;;5066877;28;20036;-63
2022/10/24 08:25:18;;;;;;;6.63;2.03;;;15.60;99.90;;;;;;5051094;28;20049;-63
2022/10/24 08:27:44;;;;;;;7.53;1.50;;;15.60;99.90;;;;;;5034386;28;20057;-63
2022/10/24 08:30:10;;;;;;;6.40;1.40;;;15.70;99.90;;;;;;5050455;28;20143;-63
2022/10/24 08:32:37;;;;;;;9.02;2.40;;;15.70;99.90;;;;;;5051337;28;20068;-63
2022/10/24 08:35:03;;;;;;;6.55;1.75;;;15.70;99.90;;;;;;5049891;28;20045;-63
2022/10/24 08:37:29;;;;;;;8.02;1.58;;;15.70;99.90;;;;;;5050019;28;20051;-62
2022/10/24 08:39:54;;;;;;;12.38;2.92;;;15.70;99.90;;;;;;5083164;28;20413;-62
2022/10/24 08:42:22;;;;;;;7.85;1.92;;;15.70;99.90;;;;;;5083348;28;20041;-61
2022/10/24 08:44:48;;;;;;;8.35;2.03;;;15.70;99.90;;;;;;5049640;28;20051;-62
2022/10/24 08:47:35;;;;;;;8.80;1.77;;;15.70;99.90;;;;;;5051241;28;20389;-61
2022/10/24 08:50:37;;;;;;;7.68;1.73;;;15.80;99.90;;;;;;5051525;28;20125;-62
2022/10/24 08:53:16;;;;;;;6.63;1.42;;;15.80;99.90;;;;;;5042210;28;20106;-61
2022/10/24 08:55:53;;;;;;;5.90;1.30;;;15.80;99.90;;;;;;5030861;28;20167;-61
2022/10/24 08:58:28;;;;;;;7.25;1.73;;;15.80;99.90;;;;;;5041617;28;20036;-62
2022/10/24 09:00:57;;;;;;;7.03;1.75;;;15.80;99.90;;;;;;5048733;28;20116;-61
2022/10/24 09:03:44;;;;;;;7.70;1.77;;;15.70;99.90;;;;;;5080192;28;20049;-62
2022/10/24 09:06:15;;;;;;;11.85;2.08;;;15.70;99.90;;;;;;5049637;28;20041;-62
2022/10/24 09:08:55;;;;;;;9.60;1.73;;;15.80;99.90;;;;;;5037297;28;20033;-62
2022/10/24 09:11:51;;;;;;;9.35;2.28;;;15.90;99.90;;;;;;5083238;28;20041;-62
2022/10/24 09:14:30;;;;;;;8.70;1.55;;;15.90;99.90;;;;;;5049590;28;20064;-62
2022/10/24 09:17:18;;;;;;;7.30;1.52;;;16.00;99.90;;;;;;5050077;28;20045;-63
2022/10/24 09:19:55;;;;;;;6.95;2.10;;;16.10;99.90;;;;;;5048413;28;20033;-62
2022/10/24 09:22:28;;;;;;;9.52;2.40;;;16.10;99.90;;;;;;5084097;28;20404;-64
2022/10/24 09:25:01;;;;;;;8.90;1.48;;;16.10;99.90;;;;;;5050453;28;20118;-63
2022/10/24 09:27:31;;;;;;;7.35;2.03;;;16.00;99.90;;;;;;5083450;28;20167;-61
2022/10/24 09:29:58;;;;;;;8.18;2.08;;;16.00;99.90;;;;;;5049547;28;20049;-61
2022/10/24 09:32:29;;;;;;;6.95;1.52;;;16.00;99.90;;;;;;5083578;28;20056;-60
2022/10/24 09:35:05;;;;;;;10.52;2.13;;;16.00;99.90;;;;;;5083110;28;20136;-61
2022/10/24 09:37:40;;;;;;;11.30;2.25;;;16.00;99.90;;;;;;5049813;28;20076;-61
2022/10/24 09:40:10;;;;;;;10.65;2.33;;;16.00;99.90;;;;;;5049627;28;20037;-60
2022/10/24 09:42:37;;;;;;;6.00;1.73;;;15.90;99.90;;;;;;5083806;28;20128;-60
2022/10/24 09:45:19;;;;;;;8.70;2.35;;;15.90;99.90;;;;;;5050956;28;20575;-60
2022/10/24 09:47:45;;;;;;;6.68;1.73;;;16.00;99.90;;;;;;5050544;28;20044;-60
2022/10/24 09:50:21;;;;;;;9.07;2.83;;;16.00;99.90;;;;;;5051734;28;20079;-60
2022/10/24 09:52:55;;;;;;;10.48;2.95;;;16.00;99.90;;;;;;5050583;28;20044;-60
2022/10/24 09:55:23;;;;;;;11.52;2.65;;;16.00;99.90;;;;;;5054243;28;20143;-61
2022/10/24 09:57:54;;;;;;;7.15;2.00;;;16.00;99.90;;;;;;5053944;28;20041;-61
2022/10/24 10:00:32;;;;;;;9.95;2.85;;;16.00;99.90;;;;;;5053191;28;20081;-61
2022/10/24 10:03:04;;;;;;;7.25;1.80;;;15.90;99.90;;;;;;5087550;28;20037;-60
2022/10/24 10:06:10;;;;;;;9.55;2.65;;;15.80;99.90;;;;;;5087467;28;20055;-61
2022/10/24 10:08:36;;;;;;;6.05;1.80;;;15.70;99.90;;;;;;5038867;28;20045;-61
2022/10/24 10:11:10;;;;;;;9.63;2.20;;;15.60;99.90;;;;;;5084812;28;20043;-61
2022/10/24 10:13:48;;;;;;;9.53;2.00;;;15.70;99.90;;;;;;5053382;28;20045;-62
2022/10/24 10:16:27;;;;;;;10.38;2.85;;;15.70;99.90;;;;;;5054478;28;20508;-62
2022/10/24 10:19:18;;;;;;;11.02;2.08;;;15.70;99.90;;;;;;5036430;28;20056;-61
2022/10/24 10:22:00;;;;;;;6.95;2.08;;;15.80;99.90;;;;;;5053701;28;20043;-61
2022/10/24 10:24:37;;;;;;;9.20;2.78;;;15.80;99.90;;;;;;5061687;28;20045;-61
2022/10/24 10:27:39;;;;;;;10.50;2.33;;;15.90;99.90;;;;;;5087494;28;20375;-61
2022/10/24 10:30:08;;;;;;;8.82;2.15;;;16.10;99.90;;;;;;5029966;28;20049;-61
2022/10/24 10:33:17;;;;;;;8.52;2.40;;;16.20;99.90;;;;;;5041709;28;20132;-61
2022/10/24 10:35:55;;;;;;;9.88;2.70;;;16.20;99.90;;;;;;5052128;28;20053;-62
2022/10/24 10:38:41;;;;;;;8.68;2.63;;;16.20;99.90;;;;;;5053111;28;20490;-61
2022/10/24 10:41:39;;;;;;;11.63;3.08;;;16.20;99.90;;;;;;5087114;28;20039;-61
2022/10/24 10:44:28;;;;;;;5.35;1.83;;;16.10;99.90;;;;;;5085386;28;20048;-61
2022/10/24 10:47:19;;;;;;;10.15;2.70;;;16.20;99.90;;;;;;5052393;28;20037;-60
2022/10/24 10:49:50;;;;;;;8.35;2.63;;;16.20;99.90;;;;;;5051841;28;20037;-61
2022/10/24 10:52:29;;;;;;;12.75;3.08;;;16.20;99.90;;;;;;5086235;28;20047;-61
2022/10/24 10:55:27;;;;;;;12.48;3.33;;;16.20;99.90;;;;;;5051042;28;20436;-61
2022/10/24 10:57:55;;;;;;;7.80;2.10;;;16.10;99.90;;;;;;5053243;28;20453;-61
2022/10/24 11:00:42;;;;;;;9.48;2.47;;;16.10;99.90;;;;;;5052053;28;20045;-61
2022/10/24 11:03:11;;;;;;;13.85;3.45;;;16.10;99.90;;;;;;5051871;28;20045;-61
2022/10/24 11:05:57;;;;;;;7.70;2.40;;;16.00;99.90;;;;;;5049196;28;20048;-61
2022/10/24 11:08:49;;;;;;;11.93;3.28;;;16.00;99.90;;;;;;5050161;28;20086;-62
2022/10/24 11:11:23;;;;;;;10.30;3.22;;;16.00;99.90;;;;;;5050821;28;20094;-61
2022/10/24 11:14:13;;;;;;;11.07;3.28;;;16.10;99.90;;;;;;5053326;28;20037;-61
2022/10/24 11:16:40;;;;;;;13.23;2.80;;;16.10;99.90;;;;;;5051630;28;20473;-60
2022/10/24 11:19:22;;;;;;;8.95;2.63;;;16.10;99.90;;;;;;5082858;28;20119;-61
2022/10/24 11:21:49;;;;;;;15.82;3.45;;;16.10;99.90;;;;;;5050746;28;20489;-61
2022/10/24 11:24:19;;;;;;;11.30;2.85;;;16.20;99.90;;;;;;5051810;28;20047;-61
2022/10/24 11:26:59;;;;;;;10.98;2.65;;;16.30;99.90;;;;;;5051849;28;20543;-61
2022/10/24 11:29:52;;;;;;;7.85;2.45;;;16.30;99.90;;;;;;5051467;28;20084;-61
2022/10/24 11:32:30;;;;;;;14.15;2.70;;;16.40;99.90;;;;;;5082640;28;20053;-61
2022/10/24 11:35:01;;;;;;;20.60;3.15;;;16.40;99.90;;;;;;5050338;28;20079;-61
2022/10/24 11:37:36;;;;;;;12.75;2.67;;;16.30;99.90;;;;;;5049972;28;20048;-60
2022/10/24 11:40:09;;;;;;;8.18;1.80;;;16.30;99.90;;;;;;5082004;28;20037;-60
2022/10/24 11:42:56;;;;;;;10.85;2.25;;;16.20;99.90;;;;;;5050527;28;20556;-61
2022/10/24 11:45:55;;;;;;;11.52;3.33;;;16.10;99.90;;;;;;5032370;28;20045;-60
2022/10/24 11:48:34;;;;;;;10.38;3.00;;;16.10;99.90;;;;;;5042424;28;20110;-61
2022/10/24 11:51:37;;;;;;;9.98;2.67;;;16.20;99.90;;;;;;5050228;28;20062;-60
2022/10/24 11:54:10;;;;;;;11.38;2.60;;;16.20;99.90;;;;;;4995416;28;20048;-61
2022/10/24 11:56:50;;;;;;;12.32;2.53;;;16.20;99.90;;;;;;5041049;28;20072;-61
2022/10/24 11:59:23;;;;;;;12.07;2.75;;;16.20;99.90;;;;;;5031881;28;20125;-61
2022/10/24 12:01:54;;;;;;;8.55;2.03;;;16.20;99.90;;;;;;5063278;28;20040;-61
2022/10/24 12:04:31;;;;;;;11.50;3.53;;;16.20;99.90;;;;;;5073435;28;20033;-61
2022/10/24 12:07:18;;;;;;;13.43;2.88;;;16.30;99.90;;;;;;5047856;28;20050;-61
2022/10/24 12:09:55;;;;;;;14.00;4.30;;;16.30;99.90;;;;;;5047783;28;20045;-61
2022/10/24 12:12:40;;;;;;;8.88;2.35;;;16.40;99.90;;;;;;5049398;28;20124;-62
2022/10/24 12:15:30;;;;;;;13.48;3.35;;;16.30;99.90;;;;;;5028555;28;20164;-61
2022/10/24 12:18:08;;;;;;;13.23;4.05;;;16.20;99.90;;;;;;5028611;28;20072;-61
2022/10/24 12:20:35;;;;;;;14.35;3.17;;;16.10;99.90;;;;;;5029650;28;20103;-61
2022/10/24 12:23:02;;;;;;;12.43;2.85;;;16.10;99.90;;;;;;5030576;28;20094;-61
2022/10/24 12:25:37;;;;;;;12.70;3.08;;;16.00;99.90;;;;;;5032501;28;20041;-61
2022/10/24 12:28:04;;;;;;;15.50;3.30;;;15.90;99.90;;;;;;5079989;28;20045;-62
2022/10/24 12:30:33;;;;;;;11.57;3.25;;;15.80;99.90;;;;;;5048975;28;20071;-61
2022/10/24 12:33:25;;;;;;;8.73;2.60;;;15.60;99.90;;;;;;5048060;28;20087;-60
2022/10/24 12:35:56;;;;;;;11.18;3.03;;;15.50;99.90;;;;;;5048175;28;20083;-61
2022/10/24 12:38:27;;;;;;;12.05;2.63;;;15.20;99.90;;;;;;5047054;28;20049;-61
2022/10/24 12:40:57;;;;;;;7.65;2.45;;;15.10;99.90;;;;;;5030196;28;20131;-60
2022/10/24 12:43:32;;;;;;;7.70;2.10;;;15.10;99.90;;;;;;5049229;28;20061;-61
2022/10/24 12:46:00;;;;;;;11.02;2.75;;;15.20;99.90;;;;;;5031224;28;20033;-61
2022/10/24 12:48:29;;;;;;;16.00;3.40;;;15.10;99.90;;;;;;5049913;28;20069;-61
2022/10/24 12:50:57;;;;;;;8.30;2.28;;;15.10;99.90;;;;;;5046504;28;20037;-61
2022/10/24 12:53:35;;;;;;;8.52;2.33;;;15.20;99.90;;;;;;5081894;28;20044;-61
2022/10/24 12:56:11;;;;;;;6.80;1.80;;;15.20;99.90;;;;;;5030397;28;20045;-62
2022/10/24 12:58:41;;;;;;;14.82;2.22;;;15.30;99.90;;;;;;5048095;28;20044;-63
2022/10/24 13:01:33;;;;;;;6.88;1.75;;;15.40;99.90;;;;;;5031046;28;20045;-63
2022/10/24 13:04:04;;;;;;;8.50;2.05;;;15.50;99.90;;;;;;5047920;28;20049;-63
2022/10/24 13:06:47;;;;;;;8.25;1.98;;;15.60;99.90;;;;;;5081156;28;20083;-62